Time;durP1;ratioP1;P1;durP2;ratioP2;P2;SDS_P1;SDS_P2;PMS_P1;PMS_P2;Temp;Humidity;BMP_temperature;BMP_pressure;BME280_temperature;BME280_humidity;BME280_pressure;Samples;Min_cycle;Max_cycle;Signal;HPM_P1;HPM_P2
2021/10/09 00:00:33;;;;;;;19.90;15.83;;;;;;;10.71;84.21;96419.16;4994961;28;20771;-85
2021/10/09 00:03:01;;;;;;;18.10;14.97;;;;;;;10.66;84.42;96419.63;4995056;28;20698;-85
2021/10/09 00:05:28;;;;;;;17.50;15.13;;;;;;;10.73;84.10;96425.75;4994733;28;20223;-86
2021/10/09 00:07:55;;;;;;;16.67;14.87;;;;;;;10.66;83.91;96409.31;4993669;28;20231;-85
2021/10/09 00:10:26;;;;;;;19.20;14.83;;;;;;;10.45;85.13;96416.63;4994592;28;20207;-85
2021/10/09 00:12:53;;;;;;;16.90;14.50;;;;;;;10.43;85.26;96418.56;4995325;28;20215;-84
2021/10/09 00:15:20;;;;;;;17.73;14.87;;;;;;;10.34;85.92;96416.94;4994797;28;20290;-85
2021/10/09 00:17:47;;;;;;;19.40;15.23;;;;;;;10.27;86.55;96410.78;4995427;28;20230;-85
2021/10/09 00:20:14;;;;;;;18.83;14.13;;;;;;;10.31;86.06;96409.50;4995057;28;20226;-84
2021/10/09 00:22:42;;;;;;;15.67;13.67;;;;;;;10.29;86.75;96411.44;4994218;28;20199;-84
2021/10/09 00:25:09;;;;;;;17.43;14.17;;;;;;;10.26;86.48;96412.53;4994012;28;20211;-84
2021/10/09 00:27:37;;;;;;;15.43;13.23;;;;;;;10.35;86.38;96411.63;4994126;28;20230;-84
2021/10/09 00:30:04;;;;;;;16.30;13.43;;;;;;;10.38;86.12;96407.94;4993664;28;20701;-84
2021/10/09 00:32:31;;;;;;;18.60;13.87;;;;;;;10.28;86.63;96413.19;4994288;28;20203;-84
2021/10/09 00:34:57;;;;;;;15.60;13.33;;;;;;;10.34;85.90;96415.16;4994391;28;20203;-84
2021/10/09 00:37:24;;;;;;;15.80;13.13;;;;;;;10.28;86.46;96408.03;4994176;28;20222;-84
2021/10/09 00:39:51;;;;;;;18.10;12.83;;;;;;;10.36;86.29;96412.44;4994344;28;20214;-84
2021/10/09 00:42:18;;;;;;;14.77;13.23;;;;;;;10.38;86.27;96413.09;4994096;28;20199;-84
2021/10/09 00:44:44;;;;;;;18.63;12.97;;;;;;;10.33;85.99;96410.16;4994296;28;20727;-85
2021/10/09 00:47:11;;;;;;;18.47;14.40;;;;;;;10.29;86.54;96416.56;4993077;28;20257;-84
2021/10/09 00:49:37;;;;;;;15.80;14.07;;;;;;;10.17;87.25;96412.63;4993753;28;20228;-85
2021/10/09 00:52:05;;;;;;;16.30;13.53;;;;;;;10.17;87.67;96404.91;4993794;28;20199;-83
2021/10/09 00:54:33;;;;;;;15.47;13.23;;;;;;;10.21;87.47;96401.09;4993599;28;20203;-84
2021/10/09 00:57:02;;;;;;;19.50;13.90;;;;;;;10.22;87.41;96407.84;4992772;28;20294;-84
2021/10/09 00:59:29;;;;;;;16.07;14.03;;;;;;;10.13;88.08;96404.41;4993963;28;20211;-85
2021/10/09 01:01:59;;;;;;;17.47;13.80;;;;;;;10.10;88.43;96406.47;4994380;28;20204;-85
2021/10/09 01:04:25;;;;;;;15.53;13.70;;;;;;;10.10;88.50;96406.47;4994054;28;20203;-85
2021/10/09 01:06:53;;;;;;;15.40;13.80;;;;;;;10.14;88.09;96400.88;4993893;28;20253;-85
2021/10/09 01:09:19;;;;;;;19.97;14.13;;;;;;;10.08;88.45;96408.41;4993900;28;20267;-85
2021/10/09 01:11:45;;;;;;;18.73;13.97;;;;;;;10.11;88.48;96405.53;4993825;28;20669;-84
2021/10/09 01:14:13;;;;;;;18.17;14.27;;;;;;;10.09;88.71;96404.88;4993103;28;20213;-85
2021/10/09 01:16:40;;;;;;;16.33;13.97;;;;;;;10.09;88.78;96407.44;4993268;28;20195;-85
2021/10/09 01:19:08;;;;;;;16.17;14.13;;;;;;;10.04;89.18;96406.13;4995554;28;20207;-85
2021/10/09 01:21:44;;;;;;;17.27;13.97;;;;;;;10.04;89.16;96413.03;4997932;28;20206;-84
2021/10/09 01:24:11;;;;;;;17.40;13.87;;;;;;;9.96;90.29;96410.44;4996666;28;20286;-84
2021/10/09 01:26:39;;;;;;;18.53;14.20;;;;;;;9.91;90.53;96408.31;4997171;28;20223;-84
2021/10/09 01:29:07;;;;;;;17.30;14.63;;;;;;;9.99;90.18;96402.41;4997366;28;20666;-85
2021/10/09 01:31:34;;;;;;;19.87;14.30;;;;;;;9.98;90.10;96399.03;4997792;28;20231;-84
2021/10/09 01:34:01;;;;;;;18.13;14.53;;;;;;;9.92;90.59;96399.63;4997414;28;20200;-85
2021/10/09 01:36:32;;;;;;;18.03;14.80;;;;;;;9.91;91.12;96397.22;4997118;28;20207;-84
2021/10/09 01:39:01;;;;;;;19.10;15.03;;;;;;;9.94;90.42;96397.72;4997039;28;20207;-84
2021/10/09 01:41:27;;;;;;;18.13;14.67;;;;;;;9.90;90.40;96401.53;4997788;28;20780;-84
2021/10/09 01:43:54;;;;;;;18.27;14.87;;;;;;;9.82;91.62;96391.19;4997424;28;20700;-85
2021/10/09 01:46:21;;;;;;;18.43;15.50;;;;;;;9.79;91.98;96401.81;4996013;28;20227;-84
2021/10/09 01:48:47;;;;;;;20.77;16.07;;;;;;;9.74;92.75;96400.66;4996769;28;20211;-84
2021/10/09 01:51:14;;;;;;;17.83;14.40;;;;;;;9.76;92.15;96399.53;4996941;28;20222;-84
2021/10/09 01:53:41;;;;;;;16.97;15.17;;;;;;;9.68;93.12;96395.13;4997105;28;20210;-84
2021/10/09 01:56:09;;;;;;;18.63;15.87;;;;;;;9.72;92.90;96397.41;4996000;28;20231;-85
2021/10/09 01:58:37;;;;;;;17.97;15.23;;;;;;;9.69;92.95;96395.94;4996355;28;20227;-84
2021/10/09 02:01:03;;;;;;;17.13;15.13;;;;;;;9.73;92.65;96396.47;4996718;28;20679;-85
2021/10/09 02:03:30;;;;;;;19.23;15.63;;;;;;;9.70;92.91;96392.41;4996795;28;20226;-84
2021/10/09 02:05:56;;;;;;;19.60;15.20;;;;;;;9.70;92.58;96392.41;4996255;28;20577;-84
2021/10/09 02:08:22;;;;;;;21.87;16.13;;;;;;;9.73;92.55;96396.47;4996148;28;20254;-84
2021/10/09 02:10:54;;;;;;;19.07;16.17;;;;;;;9.73;91.88;96386.97;4996747;28;20199;-84
2021/10/09 02:13:25;;;;;;;18.37;15.90;;;;;;;9.65;92.67;96387.72;4996029;28;20227;-84
2021/10/09 02:15:56;;;;;;;21.57;16.57;;;;;;;9.70;92.39;96390.66;4995985;28;20207;-84
2021/10/09 02:26:42;;;;;;;20.77;15.83;;;;;;;9.65;92.40;96385.16;4954951;28;20244;-84
2021/10/09 02:29:10;;;;;;;17.77;15.80;;;;;;;9.59;92.93;96387.53;4985449;28;20662;-84
2021/10/09 02:31:36;;;;;;;18.13;16.00;;;;;;;9.53;93.97;96388.13;4995523;28;20207;-84
2021/10/09 02:34:03;;;;;;;21.57;16.47;;;;;;;9.57;93.49;96386.88;4996335;28;20207;-84
2021/10/09 02:36:30;;;;;;;21.17;17.13;;;;;;;9.49;93.85;96384.25;4995395;28;20690;-84
2021/10/09 02:38:56;;;;;;;21.80;16.13;;;;;;;9.54;93.59;96389.75;4995490;28;20697;-85
2021/10/09 02:41:23;;;;;;;25.47;16.47;;;;;;;9.50;93.80;96386.66;4995917;28;20196;-84
2021/10/09 02:43:49;;;;;;;18.67;16.60;;;;;;;9.52;93.78;96395.03;4995298;28;20219;-84
2021/10/09 02:46:17;;;;;;;22.20;17.60;;;;;;;9.43;94.49;96395.91;4995959;28;20219;-84
2021/10/09 02:48:43;;;;;;;22.77;18.00;;;;;;;9.43;94.84;96397.72;5035188;23;20222;-82
2021/10/09 02:51:10;;;;;;;19.03;16.93;;;;;;;9.44;94.61;96394.97;5031665;28;20662;-82
2021/10/09 02:53:36;;;;;;;18.70;16.50;;;;;;;9.55;93.52;96386.22;5032142;28;20201;-83
2021/10/09 02:56:03;;;;;;;21.00;16.70;;;;;;;9.52;93.88;96387.31;5041801;28;20236;-82
2021/10/09 02:58:29;;;;;;;19.10;16.90;;;;;;;9.55;93.42;96399.06;5028305;28;20959;-82
2021/10/09 03:00:56;;;;;;;18.80;16.37;;;;;;;9.57;92.64;96392.81;5012474;28;20233;-82
2021/10/09 03:03:24;;;;;;;19.93;16.97;;;;;;;9.58;92.55;96393.63;5012548;28;20297;-82
2021/10/09 03:05:51;;;;;;;19.40;16.87;;;;;;;9.48;93.13;96390.34;5012212;28;20416;-82
2021/10/09 03:08:17;;;;;;;23.17;16.50;;;;;;;9.47;93.55;96386.16;5012203;28;20234;-82
2021/10/09 03:10:44;;;;;;;22.17;16.27;;;;;;;9.55;92.84;96386.22;5030338;28;20205;-82
2021/10/09 03:13:10;;;;;;;20.43;17.20;;;;;;;9.65;92.24;96392.06;5031670;28;20209;-82
2021/10/09 03:15:37;;;;;;;19.47;16.47;;;;;;;9.73;91.31;96392.13;5031395;28;20696;-83
2021/10/09 03:18:03;;;;;;;19.80;17.20;;;;;;;9.75;90.78;96394.53;5032149;28;20202;-82
2021/10/09 03:20:31;;;;;;;22.07;16.60;;;;;;;9.75;90.72;96389.41;5032170;28;20202;-83
2021/10/09 03:22:57;;;;;;;19.07;16.37;;;;;;;9.82;90.29;96388.63;5031996;28;20209;-82
2021/10/09 03:25:24;;;;;;;19.93;15.60;;;;;;;9.92;89.01;96389.34;5031773;28;20233;-82
2021/10/09 03:27:50;;;;;;;19.93;16.33;;;;;;;9.88;88.34;96384.66;5031641;28;20229;-83
2021/10/09 03:30:17;;;;;;;19.97;15.97;;;;;;;9.88;88.22;96393.19;5032448;28;20198;-82
2021/10/09 03:32:43;;;;;;;19.53;16.03;;;;;;;9.88;87.86;96392.38;5032454;28;20202;-83
2021/10/09 03:35:10;;;;;;;19.47;16.63;;;;;;;9.79;88.55;96399.25;5032171;28;20573;-83
2021/10/09 03:37:38;;;;;;;19.57;17.00;;;;;;;9.75;88.33;96394.53;5032279;28;20210;-83
2021/10/09 03:40:09;;;;;;;19.93;15.80;;;;;;;9.78;87.89;96392.47;5032161;28;20226;-83
2021/10/09 03:42:38;;;;;;;20.50;16.30;;;;;;;9.79;87.80;96395.88;5032534;28;20293;-82
2021/10/09 03:45:09;;;;;;;17.97;16.07;;;;;;;9.88;87.63;96395.75;5032550;28;20618;-82
2021/10/09 03:47:51;;;;;;;19.43;15.93;;;;;;;9.86;86.88;96400.22;5032508;28;20307;-83
2021/10/09 03:50:33;;;;;;;20.97;16.50;;;;;;;9.82;86.64;96398.91;5031955;28;20301;-82
2021/10/09 03:53:00;;;;;;;21.20;16.73;;;;;;;9.78;86.47;96401.97;5032009;28;20211;-83
2021/10/09 03:55:27;;;;;;;21.83;15.70;;;;;;;9.76;86.91;96398.72;5031295;28;20253;-83
2021/10/09 03:57:53;;;;;;;18.13;16.23;;;;;;;9.64;87.06;96395.59;5031590;28;20209;-83
2021/10/09 04:00:20;;;;;;;23.23;16.00;;;;;;;9.56;88.00;96405.81;5032095;28;20576;-83
2021/10/09 04:02:47;;;;;;;21.97;16.40;;;;;;;9.53;88.13;96401.78;5031831;28;20209;-82
2021/10/09 04:05:13;;;;;;;20.00;17.13;;;;;;;9.53;88.26;96400.97;5031329;28;20209;-82
2021/10/09 04:07:40;;;;;;;21.30;16.60;;;;;;;9.44;88.60;96405.25;5031638;28;20233;-83
2021/10/09 04:10:10;;;;;;;18.83;16.63;;;;;;;9.48;88.31;96401.41;5031874;28;20218;-82
2021/10/09 04:12:37;;;;;;;23.67;16.50;;;;;;;9.51;88.12;96402.88;5031975;28;20202;-82
2021/10/09 04:15:06;;;;;;;20.33;16.80;;;;;;;9.51;87.93;96406.28;5031772;28;20234;-81
2021/10/09 04:17:32;;;;;;;22.13;16.60;;;;;;;9.52;87.98;96395.03;5031497;28;20202;-81
2021/10/09 04:19:59;;;;;;;21.53;17.33;;;;;;;9.50;88.83;96404.66;5031403;28;20240;-82
2021/10/09 04:22:25;;;;;;;18.30;16.50;;;;;;;9.56;87.66;96398.91;5031644;28;20217;-81
2021/10/09 04:24:52;;;;;;;19.23;17.23;;;;;;;9.61;87.26;96396.72;5031100;28;20202;-80
2021/10/09 04:27:19;;;;;;;19.50;17.40;;;;;;;9.61;87.09;96394.16;5030736;28;20244;-80
2021/10/09 04:29:46;;;;;;;21.77;17.77;;;;;;;9.66;87.01;96398.81;5031305;28;20225;-81
2021/10/09 04:32:12;;;;;;;21.87;17.40;;;;;;;9.72;86.40;96395.66;5030971;28;20229;-80
2021/10/09 04:34:39;;;;;;;20.53;17.63;;;;;;;9.67;86.48;96400.44;5030792;28;20688;-80
2021/10/09 04:37:05;;;;;;;21.03;17.23;;;;;;;9.73;86.60;96399.84;5030469;28;20198;-82
2021/10/09 04:39:31;;;;;;;25.50;17.70;;;;;;;9.75;86.11;96395.34;5030529;28;20238;-81
2021/10/09 04:41:58;;;;;;;19.33;17.23;;;;;;;9.66;86.28;96398.81;5030695;28;20214;-81
2021/10/09 04:44:26;;;;;;;22.83;17.33;;;;;;;9.58;86.61;96402.16;5030052;28;20202;-81
2021/10/09 04:46:52;;;;;;;22.67;17.83;;;;;;;9.67;86.33;96401.25;5029998;28;20225;-81
2021/10/09 04:49:18;;;;;;;21.93;17.83;;;;;;;9.64;86.42;96400.72;5030415;28;20236;-81
2021/10/09 04:51:45;;;;;;;21.33;17.20;;;;;;;9.59;87.13;96403.78;5028556;28;20201;-80
2021/10/09 04:54:12;;;;;;;22.63;18.10;;;;;;;9.63;86.99;96407.63;5021314;28;20750;-80
2021/10/09 04:56:38;;;;;;;20.63;17.60;;;;;;;9.70;86.75;96410.41;5010310;28;20235;-80
2021/10/09 04:59:05;;;;;;;18.93;16.93;;;;;;;9.82;86.29;96404.06;5010674;28;20258;-80
2021/10/09 05:01:32;;;;;;;20.37;18.13;;;;;;;9.79;85.98;96406.97;5011108;28;20210;-80
2021/10/09 05:03:59;;;;;;;19.87;17.60;;;;;;;9.78;86.01;96404.53;5011047;28;20569;-82
2021/10/09 05:06:34;;;;;;;22.83;17.40;;;;;;;9.73;86.28;96412.69;5010519;28;20202;-82
2021/10/09 05:09:00;;;;;;;22.57;18.07;;;;;;;9.72;86.72;96418.78;5010281;28;20226;-81
2021/10/09 05:11:27;;;;;;;21.13;17.73;;;;;;;9.69;87.22;96422.47;5014834;28;20198;-82
2021/10/09 05:13:53;;;;;;;22.00;18.70;;;;;;;9.66;87.07;96419.38;5030471;28;20202;-81
2021/10/09 05:16:20;;;;;;;22.57;18.87;;;;;;;9.50;88.20;96425.22;5030126;28;20726;-79
2021/10/09 05:18:47;;;;;;;23.53;18.50;;;;;;;9.51;88.42;96424.25;5030039;28;20222;-80
2021/10/09 05:21:14;;;;;;;22.77;19.10;;;;;;;9.47;88.42;96417.81;5030601;28;20232;-82
2021/10/09 05:23:40;;;;;;;22.27;18.80;;;;;;;9.51;88.21;96420.88;5030587;28;20801;-81
2021/10/09 05:26:07;;;;;;;21.33;19.03;;;;;;;9.48;88.16;96426.31;5030397;28;20198;-80
2021/10/09 05:28:41;;;;;;;20.93;17.07;;;;;;;9.77;100.00;96429.44;5024427;28;20250;-80
2021/10/09 05:31:09;;;;;;;21.87;17.83;;;;;;;9.96;88.33;96434.41;5027114;28;20272;-82
2021/10/09 05:33:42;;;;;;;22.00;18.70;;;;;;;9.97;86.03;96435.19;5030393;28;20202;-79
2021/10/09 05:36:10;;;;;;;22.10;18.63;;;;;;;9.93;85.97;96433.88;5021099;28;20194;-81
2021/10/09 05:38:36;;;;;;;26.63;20.03;;;;;;;9.81;87.54;96430.75;5016589;28;20214;-80
2021/10/09 05:41:04;;;;;;;24.13;19.67;;;;;;;9.78;86.93;96437.97;5030854;28;20824;-82
2021/10/09 05:43:31;;;;;;;33.50;28.20;;;;;;;9.69;90.33;96432.75;5030713;28;20681;-81
2021/10/09 05:45:57;;;;;;;23.10;20.60;;;;;;;9.66;87.35;96439.97;5029812;28;20198;-81
2021/10/09 05:48:24;;;;;;;25.20;19.87;;;;;;;9.53;87.50;96442.13;5030496;28;20226;-81
2021/10/09 05:50:55;;;;;;;26.30;21.00;;;;;;;9.50;89.32;96447.53;5031036;28;20206;-81
2021/10/09 05:56:20;;;;;;;28.63;20.70;;;;;;;9.37;86.54;96440.22;5013235;28;20214;-81
2021/10/09 05:58:53;;;;;;;24.23;20.13;;;;;;;9.36;86.27;96438.59;5030149;28;20308;-81
2021/10/09 06:30:59;;;;;;;29.87;22.57;;;;;;;8.98;90.13;96462.81;5013074;28;20198;-80
2021/10/09 09:00:22;;;;;;;29.77;21.27;;;;;;;8.28;98.27;96544.53;5109453;27;21006;-80
2021/10/09 09:03:02;;;;;;;33.23;23.33;;;;;;;8.55;97.36;96553.28;5087759;28;20203;-82
2021/10/09 09:05:36;;;;;;;31.73;22.80;;;;;;;8.76;95.13;96545.38;5086283;28;20235;-83
2021/10/09 09:08:20;;;;;;;30.23;23.33;;;;;;;9.00;92.64;96541.34;5088210;28;20234;-81
2021/10/09 09:30:40;;;;;;;25.40;20.83;;;;;;;10.68;78.77;96546.47;5104251;28;21032;-82
2021/10/09 09:36:10;;;;;;;23.27;19.37;;;;;;;10.94;76.16;96537.91;5062330;28;20249;-81
2021/10/09 09:38:55;;;;;;;21.43;17.53;;;;;;;11.00;75.31;96538.06;5069761;28;20236;-80
2021/10/09 09:41:25;;;;;;;21.77;18.93;;;;;;;10.75;75.93;96536.38;5069357;28;20676;-82
2021/10/09 09:43:53;;;;;;;22.87;19.37;;;;;;;10.70;76.19;96541.97;5069477;28;20207;-82
2021/10/09 09:46:22;;;;;;;21.93;18.17;;;;;;;10.78;75.09;96538.63;5067296;28;20197;-84
2021/10/09 09:48:50;;;;;;;24.33;20.13;;;;;;;10.83;75.97;96538.97;5065530;28;20221;-82
2021/10/09 09:51:19;;;;;;;25.83;19.87;;;;;;;10.95;75.02;96540.34;5065183;28;20687;-79
2021/10/09 09:53:48;;;;;;;23.83;18.87;;;;;;;11.10;75.72;96542.31;5070737;28;20204;-82
2021/10/09 09:59:37;;;;;;;21.80;18.70;;;;;;;11.48;73.12;96540.97;5058618;28;20220;-83
2021/10/09 10:02:08;;;;;;;22.77;18.53;;;;;;;11.48;72.70;96535.81;5065755;28;20605;-80
2021/10/09 10:04:37;;;;;;;24.67;19.33;;;;;;;11.81;72.22;96536.69;5066297;28;20232;-82
2021/10/09 10:07:06;;;;;;;20.67;17.93;;;;;;;12.20;72.70;96535.06;5066166;28;20205;-80
2021/10/09 10:09:32;;;;;;;23.20;18.87;;;;;;;12.29;70.88;96535.88;5064892;28;20259;-80
2021/10/09 10:12:01;;;;;;;23.50;17.43;;;;;;;12.49;69.88;96534.53;5053429;28;20209;-80
2021/10/09 10:14:29;;;;;;;21.83;18.20;;;;;;;12.69;68.71;96532.41;5052293;28;20216;-79
2021/10/09 10:16:56;;;;;;;22.50;17.07;;;;;;;12.96;68.63;96531.97;5053129;28;20284;-81
2021/10/09 10:20:00;;;;;;;24.50;19.90;;;;;;;12.91;66.67;96520.50;5054854;28;20285;-81
2021/10/09 10:22:58;;;;;;;19.57;16.33;;;;;;;12.59;67.10;96527.41;5054615;28;20236;-79
2021/10/09 10:25:43;;;;;;;19.87;17.77;;;;;;;12.40;67.67;96520.81;5052715;28;20280;-80
2021/10/09 10:28:13;;;;;;;21.17;18.13;;;;;;;12.33;68.21;96525.03;5053092;28;20300;-81
2021/10/09 10:30:45;;;;;;;21.27;18.30;;;;;;;12.29;68.80;96525.53;5053020;28;20263;-83
2021/10/09 10:33:30;;;;;;;22.10;17.60;;;;;;;12.35;68.63;96517.13;5054323;28;20201;-81
2021/10/09 10:35:58;;;;;;;22.40;17.47;;;;;;;12.36;68.29;96516.94;5052982;28;20284;-79
2021/10/09 10:38:50;;;;;;;18.63;16.23;;;;;;;12.61;68.10;96520.28;5048980;28;20222;-82
2021/10/09 10:41:21;;;;;;;20.53;18.43;;;;;;;12.63;67.69;96525.28;5044955;28;20564;-84
2021/10/09 10:43:52;;;;;;;20.90;17.97;;;;;;;12.72;68.43;96516.53;5052511;28;20304;-81
2021/10/09 10:46:49;;;;;;;18.10;16.20;;;;;;;12.74;67.04;96520.56;5051078;28;20292;-82
2021/10/09 10:49:23;;;;;;;20.07;16.10;;;;;;;12.77;66.74;96509.91;5052351;28;20217;-82
2021/10/09 10:52:07;;;;;;;19.90;16.50;;;;;;;12.76;65.70;96512.66;5052803;28;20211;-84
2021/10/09 10:54:35;;;;;;;19.10;15.73;;;;;;;12.63;66.05;96523.53;5031969;28;20190;-81
2021/10/09 10:57:21;;;;;;;16.90;15.07;;;;;;;12.75;65.17;96508.44;5036307;28;20599;-81
2021/10/09 10:59:55;;;;;;;20.23;15.43;;;;;;;12.75;64.75;96516.19;5051340;28;20748;-83
2021/10/09 11:02:26;;;;;;;16.50;14.60;;;;;;;12.79;64.57;96514.91;5051663;28;20251;-83
2021/10/09 11:04:55;;;;;;;16.13;14.03;;;;;;;13.01;63.72;96511.59;5052583;28;20206;-83
2021/10/09 11:07:26;;;;;;;22.10;18.67;;;;;;;13.20;62.81;96515.56;5052574;28;20201;-83
2021/10/09 11:09:53;;;;;;;16.10;13.47;;;;;;;13.04;62.24;96508.66;5051105;28;20222;-83
2021/10/09 11:12:23;;;;;;;15.17;13.57;;;;;;;13.17;61.93;96509.91;5051709;28;20206;-83
2021/10/09 11:14:50;;;;;;;12.77;11.53;;;;;;;13.29;59.97;96511.94;5041951;28;20206;-83
2021/10/09 11:17:17;;;;;;;15.80;11.47;;;;;;;13.18;59.22;96514.13;5032596;28;20205;-84
2021/10/09 11:19:46;;;;;;;13.50;12.17;;;;;;;13.09;60.15;96514.13;5033008;28;20356;-84
2021/10/09 11:22:13;;;;;;;15.90;11.87;;;;;;;13.13;60.79;96512.81;5032329;28;20198;-83
2021/10/09 11:24:43;;;;;;;13.67;12.20;;;;;;;13.14;60.25;96506.66;5046845;28;20685;-84
2021/10/09 11:27:13;;;;;;;14.13;11.73;;;;;;;13.20;59.82;96500.03;5050975;28;20204;-80
2021/10/09 11:29:41;;;;;;;15.23;13.17;;;;;;;13.13;60.28;96507.63;5061663;28;20790;-82
2021/10/09 11:32:09;;;;;;;18.37;12.90;;;;;;;13.12;60.63;96494.88;5070897;28;20276;-83
2021/10/09 11:34:52;;;;;;;15.13;11.90;;;;;;;13.23;60.63;96499.72;5069822;28;20239;-84
2021/10/09 11:37:19;;;;;;;13.47;11.90;;;;;;;13.44;60.50;96486.97;5065723;28;20275;-84
2021/10/09 11:39:49;;;;;;;13.97;12.43;;;;;;;13.71;60.39;96493.41;5050622;28;20229;-81
2021/10/09 11:42:19;;;;;;;13.43;12.03;;;;;;;13.60;59.40;96490.44;5051592;28;20206;-83
2021/10/09 11:45:01;;;;;;;14.10;11.93;;;;;;;13.59;58.92;96492.22;5050143;28;20805;-84
2021/10/09 11:53:27;;;;;;;13.17;11.87;;;;;;;13.63;58.89;96492.66;5051699;28;20574;-84
2021/10/09 11:55:58;;;;;;;12.70;11.37;;;;;;;13.83;59.09;96488.63;5069479;28;20421;-80
2021/10/09 11:58:25;;;;;;;15.13;11.27;;;;;;;13.91;58.44;96485.97;5071033;28;20254;-82
2021/10/09 12:00:51;;;;;;;18.07;11.87;;;;;;;13.93;58.89;96488.38;5070569;28;20592;-88
2021/10/09 12:03:38;;;;;;;14.43;11.83;;;;;;;14.03;58.02;96489.75;5054341;28;20201;-85
2021/10/09 12:06:10;;;;;;;14.57;12.43;;;;;;;14.01;58.62;96483.94;5046241;28;20699;-83
2021/10/09 12:08:53;;;;;;;14.70;12.03;;;;;;;14.09;58.53;96480.47;5052696;28;20217;-84
2021/10/09 12:11:27;;;;;;;13.43;11.23;;;;;;;14.14;57.78;96481.56;5052134;28;20595;-84
2021/10/09 12:14:00;;;;;;;13.33;11.17;;;;;;;14.20;57.78;96479.25;5041834;28;20198;-85
2021/10/09 12:16:30;;;;;;;12.63;11.00;;;;;;;14.22;57.06;96479.88;5029154;28;20288;-84
2021/10/09 12:18:59;;;;;;;12.77;11.47;;;;;;;14.30;57.27;96480.59;5030657;28;20222;-84
2021/10/09 12:21:27;;;;;;;14.77;10.97;;;;;;;14.45;57.37;96480.63;5032381;28;20206;-84
2021/10/09 12:23:54;;;;;;;14.80;10.50;;;;;;;14.65;57.46;96470.50;5051652;28;20220;-84
2021/10/09 12:26:22;;;;;;;13.10;10.90;;;;;;;14.85;57.39;96474.16;5049746;28;20213;-84
2021/10/09 12:29:23;;;;;;;14.80;10.80;;;;;;;14.92;56.65;96474.25;5053279;28;20266;-84
2021/10/09 12:31:49;;;;;;;12.70;10.47;;;;;;;15.03;56.99;96459.00;5007676;28;20207;-84
2021/10/09 12:34:28;;;;;;;12.50;10.17;;;;;;;15.11;55.91;96463.31;5007360;28;20203;-84
2021/10/09 12:37:17;;;;;;;12.60;10.83;;;;;;;14.95;55.64;96456.53;5020175;28;20201;-85
2021/10/09 12:39:45;;;;;;;14.17;10.73;;;;;;;14.84;56.42;96457.81;5046427;28;20312;-85
2021/10/09 12:42:13;;;;;;;13.60;10.70;;;;;;;14.86;56.95;96457.63;5048748;28;20197;-84
2021/10/09 12:44:40;;;;;;;13.13;10.93;;;;;;;14.95;57.12;96451.34;5037191;28;20212;-83
2021/10/09 12:47:07;;;;;;;15.40;11.33;;;;;;;15.01;56.65;96455.03;5041420;28;20248;-85
2021/10/09 12:49:33;;;;;;;13.63;11.13;;;;;;;15.04;56.27;96467.59;5028992;28;20275;-85
2021/10/09 12:52:00;;;;;;;11.40;10.30;;;;;;;15.04;56.36;96460.63;5036290;28;20922;-86
2021/10/09 12:54:27;;;;;;;11.53;9.53;;;;;;;15.16;56.01;96450.59;5052003;28;20205;-82
2021/10/09 12:56:56;;;;;;;10.00;9.00;;;;;;;15.14;55.23;96455.97;5048247;28;20858;-85
2021/10/09 12:59:23;;;;;;;13.13;9.77;;;;;;;14.93;55.10;96460.31;5048939;28;20337;-84
2021/10/09 13:01:51;;;;;;;12.33;9.43;;;;;;;14.98;55.75;96460.56;5049033;28;20202;-84
2021/10/09 13:04:17;;;;;;;9.60;8.57;;;;;;;14.81;54.48;96463.38;5049043;28;20824;-83
2021/10/09 13:06:44;;;;;;;13.17;9.47;;;;;;;14.65;54.46;96450.59;5048420;28;20201;-84
2021/10/09 13:09:11;;;;;;;10.57;9.47;;;;;;;14.57;54.22;96452.47;5049093;28;20217;-83
2021/10/09 13:11:45;;;;;;;24.87;19.13;;;;;;;14.69;54.31;96451.03;5049523;28;20251;-83
2021/10/09 13:14:11;;;;;;;11.70;8.30;;;;;;;14.61;53.37;96451.16;5049136;28;20205;-83
2021/10/09 13:16:38;;;;;;;9.97;8.00;;;;;;;14.61;54.68;96446.78;5047969;28;20201;-83
2021/10/09 13:19:06;;;;;;;9.23;8.33;;;;;;;14.61;54.82;96446.78;5049023;28;20229;-84
2021/10/09 13:21:33;;;;;;;10.43;7.67;;;;;;;14.49;54.64;96446.41;5050383;28;20212;-84
2021/10/09 13:23:59;;;;;;;10.83;8.13;;;;;;;14.66;54.72;96448.78;5047617;28;20871;-84
2021/10/09 13:26:25;;;;;;;11.33;8.50;;;;;;;14.90;54.40;96435.53;5049031;28;20201;-84
2021/10/09 13:28:52;;;;;;;12.23;8.27;;;;;;;15.21;54.59;96437.84;5053143;28;20260;-83
2021/10/09 13:31:18;;;;;;;9.87;7.73;;;;;;;15.35;52.41;96439.63;5070531;28;20668;-85
2021/10/09 13:33:45;;;;;;;11.50;7.87;;;;;;;15.41;52.50;96440.66;5070632;28;20205;-84
2021/10/09 13:36:12;;;;;;;8.67;7.23;;;;;;;15.35;52.95;96437.03;5068372;28;20212;-83
2021/10/09 13:38:39;;;;;;;8.67;7.17;;;;;;;15.47;52.34;96437.31;5052461;28;20221;-83
2021/10/09 13:41:05;;;;;;;9.70;7.88;;;;;;;15.62;52.23;96439.88;5046637;28;20638;-84
2021/10/09 13:43:32;;;;;;;28.30;21.33;;;;;;;15.78;51.81;96437.00;5039887;28;20198;-83
2021/10/09 13:45:58;;;;;;;9.70;7.77;;;;;;;15.92;51.40;96443.94;5049132;28;20209;-84
2021/10/09 13:48:25;;;;;;;12.00;7.75;;;;;;;15.79;50.09;96436.81;5034233;28;20222;-85
2021/10/09 13:50:53;;;;;;;10.98;7.20;;;;;;;15.78;50.86;96434.41;5036025;28;20197;-85
2021/10/09 13:53:21;;;;;;;11.05;7.03;;;;;;;15.82;49.92;96433.84;5052749;28;20201;-84
2021/10/09 13:55:50;;;;;;;10.65;6.93;;;;;;;15.89;50.30;96442.50;5051313;28;20206;-84
2021/10/09 13:58:17;;;;;;;9.10;7.13;;;;;;;16.01;50.13;96439.38;5051498;28;20244;-83
2021/10/09 14:00:46;;;;;;;18.02;14.32;;;;;;;16.07;49.63;96434.25;5049260;28;20453;-83
2021/10/09 14:03:14;;;;;;;11.23;7.88;;;;;;;15.97;49.53;96435.56;5052671;28;20605;-84
2021/10/09 14:05:41;;;;;;;7.75;6.80;;;;;;;15.83;49.92;96445.03;5051198;28;20847;-83
2021/10/09 14:08:07;;;;;;;12.77;7.40;;;;;;;15.97;50.46;96431.16;5051406;28;20205;-83
2021/10/09 14:10:35;;;;;;;11.02;7.18;;;;;;;15.93;49.74;96444.72;5051928;28;20205;-84
2021/10/09 14:13:03;;;;;;;10.52;7.97;;;;;;;15.77;50.17;96438.03;5051832;28;20205;-84
2021/10/09 14:15:29;;;;;;;11.10;8.23;;;;;;;15.79;50.34;96431.63;5051192;28;20800;-83
2021/10/09 14:17:56;;;;;;;12.02;7.72;;;;;;;15.91;51.13;96434.53;5035811;28;20843;-84
2021/10/09 14:20:22;;;;;;;13.10;7.65;;;;;;;15.96;51.52;96437.38;5031998;28;20226;-84
2021/10/09 14:22:49;;;;;;;8.15;7.35;;;;;;;16.03;51.04;96450.38;5031772;28;20691;-84
2021/10/09 14:25:16;;;;;;;11.35;7.47;;;;;;;15.71;51.05;96444.75;5031391;28;20206;-85
2021/10/09 14:27:44;;;;;;;12.82;7.97;;;;;;;15.62;51.34;96432.06;5031166;28;20398;-83
2021/10/09 14:30:12;;;;;;;8.45;7.22;;;;;;;15.76;51.89;96432.03;5061821;28;20316;-84
2021/10/09 14:32:41;;;;;;;9.07;7.75;;;;;;;15.98;52.40;96435.34;5072263;28;20253;-86
2021/10/09 14:35:09;;;;;;;7.90;7.10;;;;;;;15.99;50.99;96431.78;5071243;28;20193;-85
2021/10/09 14:37:35;;;;;;;10.95;7.25;;;;;;;15.89;50.64;96434.72;5063346;28;20255;-84
2021/10/09 14:40:02;;;;;;;7.30;6.60;;;;;;;15.97;49.94;96438.94;5051212;28;20312;-83
2021/10/09 14:42:28;;;;;;;7.97;6.47;;;;;;;15.94;50.17;96431.56;5051295;28;20237;-83
2021/10/09 14:44:56;;;;;;;9.60;6.90;;;;;;;15.72;50.39;96429.97;5049193;28;20202;-85
2021/10/09 14:47:37;;;;;;;7.47;6.72;;;;;;;15.56;50.64;96432.84;5050430;28;20632;-83
2021/10/09 14:50:11;;;;;;;7.75;6.65;;;;;;;15.43;50.81;96428.28;5051050;28;20252;-84
2021/10/09 14:52:45;;;;;;;10.82;7.20;;;;;;;15.34;52.06;96434.59;5050883;28;20287;-85
2021/10/09 15:17:32;;;;;;;15.70;8.15;;;;;;;14.97;53.66;96443.41;5070705;28;20203;-83
2021/10/09 15:20:39;;;;;;;39.15;9.98;;;;;;;14.98;53.42;96430.25;5586274;23;20233;-87
2021/10/09 15:23:08;;;;;;;8.67;7.80;;;;;;;15.03;54.65;96440.84;5026129;28;20224;-84
2021/10/09 15:25:35;;;;;;;9.70;8.00;;;;;;;15.04;53.59;96433.88;5049928;28;20281;-86
2021/10/09 15:28:01;;;;;;;10.87;7.50;;;;;;;14.94;54.37;96438.56;5036342;28;20903;-86
2021/10/09 15:30:28;;;;;;;10.05;7.68;;;;;;;14.77;54.36;96441.38;5031072;28;20219;-84
2021/10/09 15:32:56;;;;;;;9.50;7.93;;;;;;;14.81;55.00;96444.41;5013055;28;20199;-86